Time;durP1;ratioP1;P1;durP2;ratioP2;P2;SDS_P1;SDS_P2;PMS_P1;PMS_P2;Temp;Humidity;BMP_temperature;BMP_pressure;BME280_temperature;BME280_humidity;BME280_pressure;Samples;Min_cycle;Max_cycle;Signal;HPM_P1;HPM_P2
2022/09/25 00:00:43;;;;;;;4.83;1.93;;;13.80;99.90;;;;;;5053576;28;20088;-88
2022/09/25 00:03:10;;;;;;;9.20;2.08;;;13.80;99.90;;;;;;5053761;28;20052;-88
2022/09/25 00:05:38;;;;;;;8.93;1.90;;;13.80;99.90;;;;;;5053605;28;20045;-88
2022/09/25 00:08:04;;;;;;;6.78;1.90;;;13.80;99.90;;;;;;5053359;28;20075;-89
2022/09/25 00:10:31;;;;;;;6.75;1.83;;;13.70;99.90;;;;;;5036530;28;20120;-88
2022/09/25 00:12:57;;;;;;;8.77;1.83;;;13.70;99.90;;;;;;5036902;28;20040;-88
2022/09/25 00:15:22;;;;;;;9.27;2.42;;;13.70;99.90;;;;;;5052942;28;20028;-88
2022/09/25 00:17:53;;;;;;;12.63;1.88;;;13.70;99.90;;;;;;5053322;28;20078;-89
2022/09/25 00:20:25;;;;;;;8.63;1.90;;;13.70;99.90;;;;;;5053237;28;20088;-89
2022/09/25 00:22:52;;;;;;;11.23;1.85;;;13.70;99.90;;;;;;5037901;28;20143;-88
2022/09/25 00:25:19;;;;;;;5.97;1.73;;;13.60;99.90;;;;;;5053216;28;20449;-88
2022/09/25 00:27:51;;;;;;;10.25;2.17;;;13.60;99.90;;;;;;5053426;28;20029;-88
2022/09/25 00:30:17;;;;;;;8.57;1.80;;;13.60;99.90;;;;;;5053251;28;20484;-89
2022/09/25 00:32:42;;;;;;;8.68;1.98;;;13.60;99.90;;;;;;5053081;28;20021;-88
2022/09/25 00:35:10;;;;;;;10.48;2.55;;;13.60;99.90;;;;;;5036446;28;20115;-88
2022/09/25 00:37:36;;;;;;;10.63;2.13;;;13.60;99.90;;;;;;5036984;28;20033;-89
2022/09/25 00:40:04;;;;;;;9.80;1.90;;;13.50;99.90;;;;;;5053055;28;20120;-89
2022/09/25 00:42:30;;;;;;;8.27;2.20;;;13.50;99.90;;;;;;5052937;28;20021;-89
2022/09/25 00:45:01;;;;;;;9.68;2.20;;;13.50;99.90;;;;;;5053077;28;20415;-89
2022/09/25 00:47:44;;;;;;;7.10;2.17;;;13.50;99.90;;;;;;5053121;28;20099;-89
2022/09/25 00:50:30;;;;;;;8.45;2.30;;;13.50;99.90;;;;;;5053281;28;20469;-89
2022/09/25 00:53:04;;;;;;;11.13;2.70;;;13.50;99.90;;;;;;5053049;28;20140;-89
2022/09/25 00:55:33;;;;;;;8.75;2.42;;;13.40;99.90;;;;;;5052878;28;20025;-89
2022/09/25 00:58:00;;;;;;;9.82;2.35;;;13.40;99.90;;;;;;5053018;28;20029;-89
2022/09/25 01:00:26;;;;;;;10.02;2.75;;;13.40;99.90;;;;;;5052484;28;20045;-89
2022/09/25 01:02:56;;;;;;;8.45;3.15;;;13.40;99.90;;;;;;5052791;28;20025;-89
2022/09/25 01:05:27;;;;;;;12.10;3.08;;;13.40;99.90;;;;;;5052833;28;20171;-89
2022/09/25 01:07:56;;;;;;;;;;;13.40;99.90;;;;;;5053251;28;20435;-89
2022/09/25 01:10:22;;;;;;;8.18;2.47;;;13.30;99.90;;;;;;5056396;28;19912;-88
2022/09/25 01:12:49;;;;;;;11.00;3.03;;;13.30;99.90;;;;;;5056717;28;20013;-89
2022/09/25 01:15:18;;;;;;;7.63;2.47;;;13.30;99.90;;;;;;5056722;28;20102;-89
2022/09/25 01:18:27;;;;;;;5.82;2.05;;;13.30;99.90;;;;;;5056445;28;20174;-89
2022/09/25 01:21:20;;;;;;;9.90;2.30;;;13.30;99.90;;;;;;5047630;28;20040;-88
2022/09/25 01:23:51;;;;;;;8.27;2.13;;;13.30;99.90;;;;;;5056304;28;20021;-89
2022/09/25 01:26:54;;;;;;;4.93;1.70;;;13.20;99.90;;;;;;5056540;28;20024;-89
2022/09/25 01:29:55;;;;;;;10.95;1.88;;;13.20;99.90;;;;;;5056045;28;20064;-88
2022/09/25 01:32:42;;;;;;;5.45;2.08;;;13.20;99.90;;;;;;5049835;28;20033;-88
2022/09/25 01:35:24;;;;;;;12.18;2.13;;;13.10;99.90;;;;;;5057721;28;20036;-89
2022/09/25 01:38:14;;;;;;;8.82;2.67;;;13.10;99.90;;;;;;5057223;28;20044;-89
2022/09/25 01:40:57;;;;;;;10.02;2.20;;;13.10;99.90;;;;;;5066577;28;20033;-89
2022/09/25 01:43:57;;;;;;;9.43;1.95;;;13.10;99.90;;;;;;5056970;28;20021;-89
2022/09/25 01:46:29;;;;;;;7.53;2.08;;;13.00;99.90;;;;;;5057217;28;20060;-89
2022/09/25 01:49:01;;;;;;;7.88;2.30;;;13.00;99.90;;;;;;5056134;28;20381;-89
2022/09/25 01:51:40;;;;;;;9.90;1.80;;;13.00;99.90;;;;;;5056021;28;20092;-89
2022/09/25 01:54:18;;;;;;;8.15;2.08;;;13.00;99.90;;;;;;5055871;28;20542;-89
2022/09/25 01:57:08;;;;;;;7.13;2.28;;;13.00;99.90;;;;;;5055976;28;20025;-89
2022/09/25 01:59:41;;;;;;;7.05;2.15;;;12.90;99.90;;;;;;5055690;28;20070;-89
2022/09/25 02:02:14;;;;;;;8.57;2.58;;;12.90;99.90;;;;;;5056186;28;20051;-89
2022/09/25 02:04:48;;;;;;;8.45;2.15;;;12.90;99.90;;;;;;5055924;28;20029;-89
2022/09/25 02:07:22;;;;;;;6.60;1.90;;;12.90;99.90;;;;;;5055711;28;20025;-89
2022/09/25 02:09:55;;;;;;;5.13;1.63;;;12.90;99.90;;;;;;5055896;28;20031;-88
2022/09/25 02:12:39;;;;;;;7.93;2.10;;;12.80;99.90;;;;;;5055661;28;20111;-89
2022/09/25 02:15:19;;;;;;;7.88;2.30;;;12.80;99.90;;;;;;5055839;28;20435;-89
2022/09/25 02:21:23;;;;;;;12.80;2.00;;;12.80;99.90;;;;;;5055616;28;20088;-89
2022/09/25 02:24:02;;;;;;;6.72;1.60;;;12.70;99.90;;;;;;5055655;28;20120;-89
2022/09/25 02:26:30;;;;;;;7.75;2.03;;;12.70;99.90;;;;;;5055544;28;20021;-92
2022/09/25 02:28:58;;;;;;;7.85;2.00;;;12.70;99.90;;;;;;5055147;28;20041;-89
2022/09/25 02:32:19;;;;;;;4.38;1.83;;;12.60;99.90;;;;;;5054892;28;20017;-89
2022/09/25 02:34:55;;;;;;;7.43;1.98;;;12.60;99.90;;;;;;5031303;28;20036;-89
2022/09/25 02:37:21;;;;;;;9.60;2.08;;;12.60;99.90;;;;;;5042064;28;20103;-89
2022/09/25 02:39:51;;;;;;;5.60;2.03;;;12.60;99.90;;;;;;5055118;28;20476;-89
2022/09/25 02:42:47;;;;;;;8.02;2.30;;;12.50;99.90;;;;;;5055161;28;20025;-89
2022/09/25 02:45:42;;;;;;;7.03;1.90;;;12.50;99.90;;;;;;5054572;28;20044;-89
2022/09/25 02:48:36;;;;;;;8.48;2.20;;;12.50;99.90;;;;;;5054949;28;20116;-89
2022/09/25 02:51:35;;;;;;;8.70;2.00;;;12.40;99.90;;;;;;5055193;28;20025;-89
2022/09/25 02:54:07;;;;;;;7.55;2.13;;;12.40;99.90;;;;;;5054903;28;20029;-89
2022/09/25 02:56:48;;;;;;;8.57;2.33;;;12.40;99.90;;;;;;5059133;28;20029;-91
2022/09/25 02:59:19;;;;;;;9.10;2.53;;;12.30;99.90;;;;;;5064894;28;20021;-89
2022/09/25 03:01:46;;;;;;;;;;;12.30;99.90;;;;;;5063346;28;20052;-90
2022/09/25 03:04:18;;;;;;;7.32;2.50;;;12.30;99.90;;;;;;5063809;28;19905;-89
2022/09/25 03:06:45;;;;;;;9.40;2.42;;;12.30;99.90;;;;;;5064657;28;20032;-89
2022/09/25 03:09:17;;;;;;;5.38;2.10;;;12.20;99.90;;;;;;5061630;28;20385;-89
2022/09/25 03:11:43;;;;;;;4.53;2.15;;;12.20;99.90;;;;;;5060479;28;20033;-89
2022/09/25 03:14:09;;;;;;;6.35;2.03;;;12.20;99.90;;;;;;5040054;28;20036;-89
2022/09/25 03:16:46;;;;;;;7.10;2.08;;;12.20;99.90;;;;;;5056143;28;20029;-89
2022/09/25 03:19:12;;;;;;;6.32;2.45;;;12.10;99.90;;;;;;5054961;28;20028;-89
2022/09/25 03:21:38;;;;;;;8.90;2.67;;;12.10;99.90;;;;;;5054726;28;20407;-90
2022/09/25 03:24:05;;;;;;;7.32;2.30;;;12.10;99.90;;;;;;5037760;28;20021;-89
2022/09/25 03:26:31;;;;;;;5.88;2.28;;;12.10;99.90;;;;;;5054423;28;20029;-89
2022/09/25 03:29:01;;;;;;;7.05;2.10;;;12.10;99.90;;;;;;5054352;28;20124;-89
2022/09/25 03:31:31;;;;;;;4.88;2.33;;;12.00;99.90;;;;;;5055426;28;20031;-89
2022/09/25 03:33:59;;;;;;;8.32;2.47;;;12.00;99.90;;;;;;5054515;28;20017;-89
2022/09/25 03:36:29;;;;;;;7.13;2.50;;;12.00;99.90;;;;;;5038369;28;20120;-89
2022/09/25 03:38:57;;;;;;;5.82;2.10;;;12.00;99.90;;;;;;5038550;28;20040;-89
2022/09/25 03:41:30;;;;;;;9.35;2.25;;;12.00;99.90;;;;;;5054526;28;20021;-89
2022/09/25 03:43:57;;;;;;;4.93;1.98;;;11.90;99.90;;;;;;5054281;28;20036;-89
2022/09/25 03:46:37;;;;;;;5.28;2.30;;;11.90;99.90;;;;;;5054273;28;20508;-90
2022/09/25 03:49:03;;;;;;;14.85;3.13;;;11.90;99.90;;;;;;5053927;28;20496;-89
2022/09/25 03:51:30;;;;;;;5.88;2.00;;;11.90;99.90;;;;;;5054125;28;20021;-89
2022/09/25 03:53:56;;;;;;;4.97;2.08;;;11.80;99.90;;;;;;5053722;28;20106;-89
2022/09/25 03:56:26;;;;;;;6.53;2.17;;;11.80;99.90;;;;;;5053376;28;20114;-88
2022/09/25 03:58:53;;;;;;;6.47;2.17;;;11.80;99.90;;;;;;5053411;28;20120;-88
2022/09/25 04:01:20;;;;;;;6.50;1.92;;;11.80;99.90;;;;;;5053824;28;20485;-89
2022/09/25 04:03:47;;;;;;;9.40;2.10;;;11.70;99.90;;;;;;5055349;28;20496;-89
2022/09/25 04:06:18;;;;;;;6.60;2.30;;;11.70;99.90;;;;;;5064073;28;20526;-89
2022/09/25 04:08:44;;;;;;;;;;;11.70;99.90;;;;;;5054392;28;20365;-89
2022/09/25 04:11:14;;;;;;;4.57;2.17;;;11.70;99.90;;;;;;5054108;28;19905;-89
2022/09/25 04:13:40;;;;;;;7.53;2.00;;;11.60;99.90;;;;;;5053933;28;20029;-90
2022/09/25 04:16:09;;;;;;;6.88;2.22;;;11.60;99.90;;;;;;5053826;28;20032;-88
2022/09/25 04:18:35;;;;;;;5.78;2.55;;;11.60;99.90;;;;;;5054701;28;20025;-89
2022/09/25 04:21:07;;;;;;;7.55;2.42;;;11.60;99.90;;;;;;5036656;28;20033;-89
2022/09/25 04:23:33;;;;;;;4.45;2.20;;;11.60;99.90;;;;;;5054888;28;20461;-89
2022/09/25 04:25:59;;;;;;;6.43;2.08;;;11.50;99.90;;;;;;5053452;28;20070;-89
2022/09/25 04:28:26;;;;;;;8.90;2.28;;;11.50;99.90;;;;;;5053398;28;20033;-90
2022/09/25 04:30:52;;;;;;;6.03;2.20;;;11.50;99.90;;;;;;5053546;28;20044;-89
2022/09/25 04:34:03;;;;;;;5.65;2.30;;;11.50;99.90;;;;;;5037020;28;20025;-89
2022/09/25 04:36:05;;;;;;;4.68;2.00;;;11.50;99.90;;;;;;5046886;28;20036;-89
2022/09/25 04:38:31;;;;;;;8.80;2.55;;;11.50;99.90;;;;;;5053556;28;20021;-89
2022/09/25 04:41:01;;;;;;;6.20;2.80;;;11.50;99.90;;;;;;5053284;28;20029;-90
2022/09/25 04:43:33;;;;;;;4.90;2.13;;;11.40;99.90;;;;;;5053925;28;20029;-89
2022/09/25 04:46:04;;;;;;;7.05;2.20;;;11.40;99.90;;;;;;5060062;28;20021;-88
2022/09/25 04:48:30;;;;;;;7.13;2.60;;;11.40;99.90;;;;;;5062354;28;20065;-88
2022/09/25 04:50:57;;;;;;;7.55;2.42;;;11.40;99.90;;;;;;5063975;28;20029;-89
2022/09/25 04:53:24;;;;;;;7.28;2.20;;;11.40;99.90;;;;;;5048379;28;20028;-90
2022/09/25 04:55:52;;;;;;;5.28;2.33;;;11.40;99.90;;;;;;5067424;28;20053;-90
2022/09/25 04:58:21;;;;;;;4.50;1.98;;;11.30;99.90;;;;;;5068826;28;20025;-90
2022/09/25 05:00:47;;;;;;;8.30;2.55;;;11.30;99.90;;;;;;5067822;28;20060;-90
2022/09/25 05:03:16;;;;;;;6.18;2.40;;;11.30;99.90;;;;;;5058608;28;20025;-90
2022/09/25 05:05:41;;;;;;;6.70;2.40;;;11.30;99.90;;;;;;5057694;28;20024;-89
2022/09/25 05:08:08;;;;;;;7.30;2.30;;;11.30;99.90;;;;;;5058822;28;20029;-90
2022/09/25 05:10:34;;;;;;;6.65;2.40;;;11.30;99.90;;;;;;5072014;28;20025;-90
2022/09/25 05:13:02;;;;;;;8.07;2.47;;;11.30;99.90;;;;;;5073080;28;20021;-90
2022/09/25 05:15:30;;;;;;;6.97;2.28;;;11.30;99.90;;;;;;5073650;28;20028;-89
2022/09/25 05:18:07;;;;;;;14.80;2.70;;;11.20;99.90;;;;;;5067012;28;20025;-90
2022/09/25 05:20:36;;;;;;;9.55;2.50;;;11.20;99.90;;;;;;5058021;28;20374;-90
2022/09/25 05:23:03;;;;;;;4.25;2.58;;;11.20;99.90;;;;;;5057678;28;20025;-90
2022/09/25 05:25:29;;;;;;;5.80;2.65;;;11.20;99.90;;;;;;5057201;28;20048;-90
2022/09/25 05:28:00;;;;;;;4.28;2.13;;;11.20;99.90;;;;;;5056811;28;20040;-90
2022/09/25 05:30:29;;;;;;;5.15;2.58;;;11.20;99.90;;;;;;5056429;28;20021;-89
2022/09/25 05:32:57;;;;;;;4.40;2.25;;;11.20;99.90;;;;;;5056468;28;20017;-90
2022/09/25 05:35:27;;;;;;;6.68;2.90;;;11.20;99.90;;;;;;5056712;28;20124;-90
2022/09/25 05:37:52;;;;;;;6.53;3.15;;;11.10;99.90;;;;;;5056516;28;20053;-90
2022/09/25 05:40:24;;;;;;;7.15;2.72;;;11.10;99.90;;;;;;5040028;28;20484;-90
2022/09/25 05:42:54;;;;;;;8.57;2.53;;;11.10;99.90;;;;;;5040690;28;20025;-90
2022/09/25 05:45:21;;;;;;;7.88;3.00;;;11.10;99.90;;;;;;5056322;28;20025;-89
2022/09/25 05:48:00;;;;;;;8.90;2.92;;;11.00;99.90;;;;;;5056195;28;20116;-91
2022/09/25 05:50:31;;;;;;;7.97;2.65;;;11.00;99.90;;;;;;5041649;28;20066;-90
2022/09/25 05:52:58;;;;;;;9.00;3.13;;;11.00;99.90;;;;;;5056256;28;20029;-90
2022/09/25 05:55:24;;;;;;;5.78;2.78;;;11.00;99.90;;;;;;5039903;28;20045;-90
2022/09/25 05:57:50;;;;;;;5.35;2.65;;;11.00;99.90;;;;;;5055993;28;20025;-89
2022/09/25 06:00:16;;;;;;;5.38;3.10;;;11.00;99.90;;;;;;5056115;28;20072;-90
2022/09/25 06:02:42;;;;;;;7.63;3.28;;;11.00;99.90;;;;;;5056415;28;20021;-88
2022/09/25 06:05:10;;;;;;;7.63;3.17;;;11.00;99.90;;;;;;5058098;28;20034;-90
2022/09/25 06:07:39;;;;;;;6.95;2.80;;;11.00;99.90;;;;;;5071145;28;20141;-90
2022/09/25 06:10:06;;;;;;;8.85;3.15;;;11.00;99.90;;;;;;5059161;28;20505;-90
2022/09/25 06:12:32;;;;;;;7.30;2.60;;;11.00;99.90;;;;;;5056764;28;20021;-90
2022/09/25 06:14:57;;;;;;;5.57;2.95;;;11.00;99.90;;;;;;5056930;28;20480;-90
2022/09/25 06:17:26;;;;;;;5.70;2.92;;;11.10;99.90;;;;;;5055884;28;20022;-90
2022/09/25 06:19:54;;;;;;;6.95;3.00;;;11.10;99.90;;;;;;5039082;28;20033;-90
2022/09/25 06:22:20;;;;;;;6.55;2.85;;;11.10;99.90;;;;;;5039804;28;20029;-90
2022/09/25 06:24:47;;;;;;;6.20;2.97;;;11.10;99.90;;;;;;5055532;28;20033;-90
2022/09/25 06:27:20;;;;;;;7.97;3.17;;;11.10;99.90;;;;;;5038933;28;20131;-90
2022/09/25 06:29:46;;;;;;;8.18;3.05;;;11.10;99.90;;;;;;5040707;28;20029;-90
2022/09/25 06:32:12;;;;;;;6.35;3.10;;;11.10;99.90;;;;;;5062984;28;20024;-90
2022/09/25 06:34:38;;;;;;;7.18;2.95;;;11.10;99.90;;;;;;5068148;28;20084;-90
2022/09/25 06:37:06;;;;;;;4.45;2.95;;;11.10;99.90;;;;;;5066448;28;20367;-89
2022/09/25 06:39:32;;;;;;;5.70;2.75;;;11.20;99.90;;;;;;5047794;28;20059;-89
2022/09/25 06:41:58;;;;;;;8.90;3.30;;;11.20;99.90;;;;;;5063319;28;20021;-90
2022/09/25 06:44:24;;;;;;;5.40;2.70;;;11.20;99.90;;;;;;5046528;28;20030;-90
2022/09/25 06:46:53;;;;;;;5.15;2.72;;;11.20;99.90;;;;;;5057684;28;20057;-90
2022/09/25 06:49:20;;;;;;;5.28;2.92;;;11.20;99.90;;;;;;5055108;28;20029;-89
2022/09/25 06:51:46;;;;;;;6.18;3.20;;;11.20;99.90;;;;;;5055121;28;20021;-90
2022/09/25 06:54:19;;;;;;;6.15;3.10;;;11.30;99.90;;;;;;5055251;28;20017;-90
2022/09/25 06:56:56;;;;;;;5.88;2.92;;;11.30;99.90;;;;;;5055086;28;20488;-89
2022/09/25 06:59:24;;;;;;;5.15;2.85;;;11.30;99.90;;;;;;5055107;28;20145;-88
2022/09/25 07:01:49;;;;;;;4.47;2.70;;;11.40;99.90;;;;;;5054345;28;20062;-89
2022/09/25 07:04:15;;;;;;;7.72;2.70;;;11.40;99.90;;;;;;5054710;28;20017;-90
2022/09/25 07:06:42;;;;;;;8.27;2.70;;;11.40;99.90;;;;;;5054923;28;20063;-90
2022/09/25 07:09:13;;;;;;;6.22;3.13;;;11.50;99.90;;;;;;5055015;28;20039;-89
2022/09/25 07:11:42;;;;;;;7.68;3.15;;;11.50;99.90;;;;;;5055382;28;20021;-89
2022/09/25 07:14:09;;;;;;;6.05;2.47;;;11.50;99.90;;;;;;5040846;28;20036;-90
2022/09/25 07:16:34;;;;;;;5.25;2.35;;;11.60;99.90;;;;;;5054686;28;20021;-90
2022/09/25 07:19:03;;;;;;;6.07;2.42;;;11.60;99.90;;;;;;5054737;28;20028;-90
2022/09/25 07:21:34;;;;;;;5.65;2.35;;;11.70;99.90;;;;;;5038278;28;20032;-90
2022/09/25 07:24:00;;;;;;;;;;;11.70;99.90;;;;;;5055012;28;20032;-93
2022/09/25 07:26:32;;;;;;;5.28;2.67;;;11.70;99.90;;;;;;5053652;28;19904;-90
2022/09/25 07:29:00;;;;;;;4.88;2.22;;;11.70;99.90;;;;;;5054586;28;20111;-90
2022/09/25 07:31:32;;;;;;;7.55;2.40;;;11.80;99.90;;;;;;5054481;28;20048;-90
2022/09/25 07:34:04;;;;;;;4.38;2.33;;;11.80;99.90;;;;;;5054526;28;20088;-90
2022/09/25 07:36:30;;;;;;;9.23;2.53;;;11.80;99.90;;;;;;5054273;28;20029;-90
2022/09/25 07:39:00;;;;;;;6.00;2.40;;;11.90;99.90;;;;;;5054142;28;20036;-90
2022/09/25 07:41:26;;;;;;;3.55;1.90;;;11.90;99.90;;;;;;5053926;28;20032;-90
2022/09/25 07:43:57;;;;;;;6.93;1.98;;;11.90;99.90;;;;;;5054214;28;20021;-90
2022/09/25 07:46:30;;;;;;;6.38;2.42;;;12.00;99.90;;;;;;5055158;28;20473;-90
2022/09/25 07:48:56;;;;;;;3.67;1.73;;;12.00;99.90;;;;;;5038862;28;20134;-90
2022/09/25 07:51:23;;;;;;;4.93;1.73;;;12.10;99.90;;;;;;5053611;28;20020;-91
2022/09/25 07:53:49;;;;;;;4.30;1.75;;;12.10;99.90;;;;;;5053873;28;20384;-90
2022/09/25 07:56:20;;;;;;;3.92;1.70;;;12.10;99.90;;;;;;5053812;28;20031;-90
2022/09/25 07:58:47;;;;;;;6.07;2.15;;;12.20;99.90;;;;;;5055049;28;20105;-90
2022/09/25 08:01:12;;;;;;;6.13;1.40;;;12.20;99.90;;;;;;5053778;28;20053;-90
2022/09/25 08:03:41;;;;;;;5.95;1.67;;;12.20;99.90;;;;;;5037298;28;20025;-89
2022/09/25 08:06:12;;;;;;;3.17;1.50;;;12.30;99.90;;;;;;5053483;28;20060;-90
2022/09/25 08:08:39;;;;;;;5.35;1.50;;;12.30;99.90;;;;;;5053964;28;20090;-90
2022/09/25 08:11:08;;;;;;;5.05;1.80;;;12.30;99.90;;;;;;5053578;28;20025;-93
2022/09/25 08:13:42;;;;;;;6.05;1.30;;;12.40;99.90;;;;;;5054165;28;20021;-90
2022/09/25 08:16:14;;;;;;;8.23;1.60;;;12.40;99.90;;;;;;5053592;28;20021;-90
2022/09/25 08:18:41;;;;;;;7.25;2.03;;;12.50;99.90;;;;;;5052736;28;20036;-90
2022/09/25 08:21:08;;;;;;;7.35;1.80;;;12.50;99.90;;;;;;5053430;28;20029;-90
2022/09/25 08:23:39;;;;;;;5.78;2.03;;;12.50;99.90;;;;;;5053468;28;20025;-90
2022/09/25 08:26:07;;;;;;;5.07;1.45;;;12.60;99.90;;;;;;5053456;28;20048;-89
2022/09/25 08:28:33;;;;;;;5.10;1.70;;;12.60;99.90;;;;;;5053681;28;20029;-89
2022/09/25 08:31:03;;;;;;;3.67;1.67;;;12.60;99.90;;;;;;5053945;28;20025;-89
2022/09/25 08:33:33;;;;;;;4.03;1.55;;;12.70;99.90;;;;;;5053856;28;20113;-89
2022/09/25 08:36:01;;;;;;;4.32;1.30;;;12.80;99.90;;;;;;5051191;28;20033;-90
2022/09/25 08:38:28;;;;;;;5.55;1.30;;;12.80;99.90;;;;;;5054925;28;20033;-90
2022/09/25 08:41:02;;;;;;;7.25;1.67;;;12.90;99.90;;;;;;5053256;28;20052;-90
2022/09/25 08:43:33;;;;;;;8.07;2.03;;;12.90;99.90;;;;;;5054558;28;20333;-89
2022/09/25 08:49:02;;;;;;;9.15;1.58;;;13.10;99.90;;;;;;5054388;28;20040;-89
2022/09/25 08:51:37;;;;;;;8.65;1.65;;;13.10;99.90;;;;;;5053242;28;20025;-89
2022/09/25 08:54:05;;;;;;;5.07;1.50;;;13.20;99.90;;;;;;5053320;28;20094;-88
2022/09/25 08:56:34;;;;;;;6.28;1.70;;;13.30;99.90;;;;;;5036615;28;20033;-89
2022/09/25 08:59:37;;;;;;;6.43;1.48;;;13.40;99.90;;;;;;5053510;28;20031;-89
2022/09/25 09:02:19;;;;;;;7.72;1.80;;;13.50;99.90;;;;;;5053015;28;20041;-90
2022/09/25 09:04:54;;;;;;;4.68;1.40;;;13.50;99.90;;;;;;5053550;28;20047;-89
2022/09/25 09:07:43;;;;;;;7.70;1.50;;;13.60;99.90;;;;;;5053160;28;20452;-89
2022/09/25 09:10:31;;;;;;;8.80;1.92;;;13.70;99.90;;;;;;5053222;28;20025;-89
2022/09/25 09:13:04;;;;;;;3.95;1.77;;;13.80;99.90;;;;;;5053035;28;20032;-89
2022/09/25 09:15:44;;;;;;;4.72;1.50;;;13.90;99.90;;;;;;5052758;28;20465;-89
2022/09/25 09:18:31;;;;;;;4.95;1.60;;;14.00;99.90;;;;;;5052830;28;20025;-89
2022/09/25 09:21:18;;;;;;;6.72;1.90;;;14.10;99.90;;;;;;5053074;28;20025;-89
2022/09/25 09:24:12;;;;;;;4.07;1.65;;;14.20;99.90;;;;;;5052807;28;20075;-89
2022/09/25 09:27:00;;;;;;;6.05;1.42;;;14.20;99.90;;;;;;5053408;28;20116;-89
2022/09/25 09:29:50;;;;;;;9.13;1.90;;;14.30;99.90;;;;;;5054387;28;20086;-89
2022/09/25 09:32:34;;;;;;;8.02;1.75;;;14.40;99.90;;;;;;5056361;28;20025;-89
2022/09/25 09:35:31;;;;;;;7.00;1.23;;;14.50;99.90;;;;;;5057350;28;20024;-89
2022/09/25 09:38:33;;;;;;;5.55;1.50;;;14.60;99.90;;;;;;5057274;28;20033;-88
2022/09/25 09:41:20;;;;;;;3.88;1.38;;;14.70;99.90;;;;;;5055581;28;20017;-89
2022/09/25 09:44:11;;;;;;;6.82;1.75;;;14.80;99.90;;;;;;5056174;28;20060;-89
2022/09/25 09:46:55;;;;;;;5.18;1.60;;;14.90;99.90;;;;;;5056100;28;20029;-89
2022/09/25 09:49:24;;;;;;;5.68;1.92;;;15.00;99.90;;;;;;5056803;28;20392;-88
2022/09/25 09:52:17;;;;;;;4.85;2.15;;;15.10;99.90;;;;;;5056891;28;20025;-88
2022/09/25 09:55:02;;;;;;;3.53;1.20;;;15.20;99.90;;;;;;5055895;28;20083;-88
2022/09/25 09:57:32;;;;;;;4.45;1.38;;;15.30;99.90;;;;;;5055974;28;20471;-87
2022/09/25 10:00:05;;;;;;;3.38;1.40;;;15.40;99.90;;;;;;5055637;28;20052;-88
2022/09/25 10:02:51;;;;;;;4.47;1.30;;;15.40;99.90;;;;;;5055832;28;20028;-88
2022/09/25 10:05:31;;;;;;;5.47;1.20;;;15.60;99.90;;;;;;5057121;28;20037;-89
2022/09/25 10:07:57;;;;;;;5.32;1.40;;;15.60;99.90;;;;;;5056273;28;20036;-88
2022/09/25 10:10:34;;;;;;;5.32;1.20;;;15.80;99.90;;;;;;5055788;28;20025;-89
2022/09/25 10:13:08;;;;;;;5.10;1.33;;;15.80;99.90;;;;;;5063355;28;20051;-89
2022/09/25 10:15:47;;;;;;;2.88;1.00;;;15.90;99.90;;;;;;5062928;28;20021;-89
2022/09/25 10:18:15;;;;;;;2.70;1.10;;;16.00;99.90;;;;;;5059867;28;20036;-89
2022/09/25 10:20:45;;;;;;;5.68;1.90;;;16.10;99.90;;;;;;5058067;28;20029;-89
2022/09/25 10:23:46;;;;;;;2.72;1.30;;;16.10;99.90;;;;;;5061229;28;20450;-89
2022/09/25 10:26:25;;;;;;;5.35;1.20;;;16.20;99.90;;;;;;5038964;28;20029;-89
2022/09/25 10:28:52;;;;;;;4.32;1.00;;;16.30;99.90;;;;;;5055983;28;20075;-88
2022/09/25 10:31:21;;;;;;;4.53;1.10;;;16.40;99.90;;;;;;5055800;28;20024;-89
2022/09/25 10:34:21;;;;;;;6.50;1.52;;;16.40;99.90;;;;;;5038878;28;20029;-89
2022/09/25 10:36:53;;;;;;;3.28;1.02;;;16.50;99.90;;;;;;5055301;28;20035;-90
2022/09/25 10:39:22;;;;;;;2.95;0.98;;;16.50;99.90;;;;;;5058277;28;20099;-88
2022/09/25 10:41:48;;;;;;;4.65;1.30;;;16.60;99.90;;;;;;5053984;28;20079;-90
2022/09/25 10:44:27;;;;;;;3.70;1.10;;;16.70;99.90;;;;;;5059219;28;20476;-87
2022/09/25 10:52:57;;;;;;;4.25;1.02;;;16.80;99.90;;;;;;5055851;28;20143;-89
2022/09/25 10:55:37;;;;;;;4.30;1.55;;;16.90;99.90;;;;;;5055185;28;20017;-93
2022/09/25 10:58:09;;;;;;;4.38;1.63;;;16.90;99.90;;;;;;5055064;28;20072;-89
2022/09/25 11:00:57;;;;;;;5.13;1.10;;;17.00;99.90;;;;;;5054645;28;20132;-90
2022/09/25 11:03:29;;;;;;;7.68;1.23;;;17.10;99.90;;;;;;5054903;28;20025;-90
2022/09/25 11:06:02;;;;;;;4.03;0.95;;;17.10;99.90;;;;;;5058735;28;20116;-89
2022/09/25 11:08:32;;;;;;;4.28;1.00;;;17.20;99.90;;;;;;5054763;28;20112;-89
2022/09/25 11:11:01;;;;;;;4.40;1.10;;;17.30;99.90;;;;;;5054814;28;20025;-89
2022/09/25 11:13:35;;;;;;;2.47;0.90;;;17.30;99.90;;;;;;5054844;28;20031;-89
2022/09/25 11:16:05;;;;;;;2.80;0.80;;;17.40;99.90;;;;;;5054698;28;20028;-89
2022/09/25 11:18:45;;;;;;;2.00;0.70;;;17.50;99.90;;;;;;5054451;28;20366;-89
2022/09/25 11:21:35;;;;;;;4.32;1.05;;;17.60;99.90;;;;;;5054518;28;20095;-89
2022/09/25 11:24:28;;;;;;;3.55;0.77;;;17.60;99.90;;;;;;5054253;28;20028;-89
2022/09/25 11:27:09;;;;;;;3.05;0.90;;;17.70;99.90;;;;;;5054442;28;20029;-89
2022/09/25 11:29:43;;;;;;;;;;;17.80;99.90;;;;;;5055492;28;20036;-90
2022/09/25 11:32:28;;;;;;;3.00;1.02;;;17.80;99.90;;;;;;5054177;28;19911;-89
2022/09/25 11:35:21;;;;;;;3.55;0.85;;;17.90;99.90;;;;;;5054144;28;20492;-88
2022/09/25 11:38:01;;;;;;;4.40;0.85;;;18.00;99.90;;;;;;5054021;28;20048;-88
2022/09/25 11:43:31;;;;;;;2.65;0.93;;;18.10;99.90;;;;;;5055516;28;20036;-88
2022/09/25 11:46:12;;;;;;;2.25;0.63;;;18.30;99.90;;;;;;5054316;28;20123;-88
2022/09/25 11:49:14;;;;;;;2.38;0.63;;;18.30;99.90;;;;;;5053659;28;20473;-88
2022/09/25 11:52:02;;;;;;;4.15;1.27;;;18.30;99.90;;;;;;5056085;28;20021;-88
2022/09/25 11:54:39;;;;;;;1.85;0.60;;;18.40;99.90;;;;;;5055049;28;20478;-88
2022/09/25 11:57:09;;;;;;;2.20;0.70;;;18.40;99.90;;;;;;5054769;28;20050;-88
2022/09/25 11:59:37;;;;;;;3.80;0.63;;;18.50;99.90;;;;;;5053442;28;20534;-88
2022/09/25 12:02:31;;;;;;;3.75;0.68;;;18.50;99.90;;;;;;5053738;28;20068;-88
2022/09/25 12:05:20;;;;;;;4.53;0.90;;;18.50;99.90;;;;;;5053454;28;20112;-88
2022/09/25 12:08:13;;;;;;;4.53;1.05;;;18.50;99.90;;;;;;5053455;28;20024;-88
2022/09/25 12:11:03;;;;;;;3.25;0.98;;;18.50;99.90;;;;;;5053636;28;20083;-88
2022/09/25 12:13:29;;;;;;;4.85;0.98;;;18.50;99.90;;;;;;5053394;28;20021;-88
2022/09/25 12:15:57;;;;;;;2.35;0.80;;;18.60;99.90;;;;;;5053159;28;20458;-88
2022/09/25 12:18:31;;;;;;;3.63;1.00;;;18.50;99.90;;;;;;5053334;28;20037;-88
2022/09/25 12:20:59;;;;;;;4.10;0.95;;;18.50;99.90;;;;;;5053175;28;20035;-88
2022/09/25 12:24:07;;;;;;;4.88;0.80;;;18.50;99.90;;;;;;5053204;28;20024;-89
2022/09/25 12:26:35;;;;;;;3.38;0.90;;;18.50;99.90;;;;;;5053195;28;20024;-88
2022/09/25 12:29:56;;;;;;;2.28;0.68;;;18.50;99.90;;;;;;5052942;28;20135;-88
2022/09/25 12:32:37;;;;;;;3.93;1.03;;;18.50;99.90;;;;;;5012402;28;20466;-88
2022/09/25 12:35:09;;;;;;;2.47;1.10;;;18.50;99.90;;;;;;5070085;28;20028;-88
2022/09/25 12:38:04;;;;;;;5.32;1.00;;;18.60;99.90;;;;;;5053106;28;20017;-90
2022/09/25 12:40:42;;;;;;;7.45;1.20;;;18.60;99.90;;;;;;5053045;28;20013;-88
2022/09/25 12:43:32;;;;;;;3.90;0.82;;;18.60;99.90;;;;;;5053486;28;20021;-88
2022/09/25 12:46:16;;;;;;;5.65;0.93;;;18.70;99.90;;;;;;5054184;28;20021;-88
2022/09/25 12:48:50;;;;;;;4.07;0.93;;;18.70;99.90;;;;;;5052575;28;20037;-88
2022/09/25 12:51:27;;;;;;;8.52;1.23;;;18.70;99.90;;;;;;5052949;28;20017;-87
2022/09/25 12:54:12;;;;;;;3.45;1.05;;;18.80;99.90;;;;;;5052575;28;20021;-88
2022/09/25 12:56:48;;;;;;;2.00;0.75;;;18.80;99.90;;;;;;5052649;28;20036;-88
2022/09/25 12:59:23;;;;;;;3.83;1.20;;;18.90;99.90;;;;;;5052898;28;20021;-87
2022/09/25 13:02:18;;;;;;;3.58;0.70;;;19.00;99.90;;;;;;5052585;28;20090;-88
2022/09/25 13:05:00;;;;;;;3.00;0.65;;;19.00;99.90;;;;;;5053951;28;20052;-88
2022/09/25 13:07:37;;;;;;;4.45;0.90;;;19.10;99.90;;;;;;5057072;28;20025;-87
2022/09/25 13:10:28;;;;;;;5.45;1.10;;;19.10;99.90;;;;;;5057039;28;20029;-88
2022/09/25 13:13:00;;;;;;;2.22;0.70;;;19.20;99.90;;;;;;5056618;28;20084;-88
2022/09/25 13:15:34;;;;;;;2.63;0.85;;;19.20;99.90;;;;;;5056482;28;20060;-88
2022/09/25 13:18:00;;;;;;;7.43;1.77;;;19.20;99.90;;;;;;5056303;28;20259;-88
2022/09/25 13:20:26;;;;;;;1.75;0.70;;;19.20;99.90;;;;;;5064288;28;20036;-87
2022/09/25 13:22:55;;;;;;;3.25;0.80;;;19.20;99.90;;;;;;5057335;28;20025;-88
2022/09/25 13:25:24;;;;;;;2.72;0.70;;;19.20;99.90;;;;;;5056413;28;20029;-88
2022/09/25 13:27:53;;;;;;;3.22;0.90;;;19.20;99.90;;;;;;5056194;28;20388;-88
2022/09/25 13:30:27;;;;;;;3.42;0.80;;;19.20;99.90;;;;;;5056354;28;20024;-88
2022/09/25 13:33:02;;;;;;;5.85;0.90;;;19.20;99.90;;;;;;5055827;28;20025;-88
2022/09/25 13:35:30;;;;;;;5.93;1.27;;;19.10;99.90;;;;;;5039443;28;20025;-88
2022/09/25 13:40:41;;;;;;;2.20;0.70;;;19.20;99.90;;;;;;5055763;28;20021;-87